sensor_id;sensor_type;location;lat;lon;timestamp;P1;durP1;ratioP1;P2;durP2;ratioP2
38034;SDS011;23841;48.524;1.342;2023-06-10T00:01:41;7.95;;;4.30;;
38034;SDS011;23841;48.524;1.342;2023-06-10T00:04:08;6.43;;;3.80;;
38034;SDS011;23841;48.524;1.342;2023-06-10T00:06:34;5.80;;;4.30;;
38034;SDS011;23841;48.524;1.342;2023-06-10T00:09:03;6.30;;;4.10;;
38034;SDS011;23841;48.524;1.342;2023-06-10T00:11:32;6.90;;;3.70;;
38034;SDS011;23841;48.524;1.342;2023-06-10T00:14:01;6.28;;;4.28;;
38034;SDS011;23841;48.524;1.342;2023-06-10T00:16:27;5.47;;;4.10;;
38034;SDS011;23841;48.524;1.342;2023-06-10T00:18:53;5.93;;;4.60;;
38034;SDS011;23841;48.524;1.342;2023-06-10T00:21:21;8.65;;;3.63;;
38034;SDS011;23841;48.524;1.342;2023-06-10T00:23:47;5.85;;;3.90;;
38034;SDS011;23841;48.524;1.342;2023-06-10T00:26:13;5.93;;;4.15;;
38034;SDS011;23841;48.524;1.342;2023-06-10T00:28:39;5.60;;;4.30;;
38034;SDS011;23841;48.524;1.342;2023-06-10T00:31:04;5.68;;;4.22;;
38034;SDS011;23841;48.524;1.342;2023-06-10T00:33:30;5.95;;;4.03;;
38034;SDS011;23841;48.524;1.342;2023-06-10T00:35:56;6.45;;;4.10;;
38034;SDS011;23841;48.524;1.342;2023-06-10T00:38:21;5.30;;;4.03;;
38034;SDS011;23841;48.524;1.342;2023-06-10T00:40:46;5.90;;;4.03;;
38034;SDS011;23841;48.524;1.342;2023-06-10T00:43:12;5.00;;;4.10;;
38034;SDS011;23841;48.524;1.342;2023-06-10T00:45:37;8.00;;;3.97;;
38034;SDS011;23841;48.524;1.342;2023-06-10T00:48:03;10.00;;;4.32;;
38034;SDS011;23841;48.524;1.342;2023-06-10T00:50:29;7.30;;;3.70;;
38034;SDS011;23841;48.524;1.342;2023-06-10T00:52:56;5.60;;;4.20;;
38034;SDS011;23841;48.524;1.342;2023-06-10T00:55:22;4.65;;;3.65;;
38034;SDS011;23841;48.524;1.342;2023-06-10T00:57:48;6.15;;;3.53;;
38034;SDS011;23841;48.524;1.342;2023-06-10T01:00:16;4.90;;;3.88;;
38034;SDS011;23841;48.524;1.342;2023-06-10T01:02:42;5.03;;;3.60;;
38034;SDS011;23841;48.524;1.342;2023-06-10T01:05:08;5.47;;;3.78;;
38034;SDS011;23841;48.524;1.342;2023-06-10T01:10:08;6.10;;;3.85;;
38034;SDS011;23841;48.524;1.342;2023-06-10T01:12:45;5.70;;;4.07;;
38034;SDS011;23841;48.524;1.342;2023-06-10T01:15:16;5.35;;;3.67;;
38034;SDS011;23841;48.524;1.342;2023-06-10T01:20:27;4.82;;;3.85;;
38034;SDS011;23841;48.524;1.342;2023-06-10T01:22:55;4.95;;;3.60;;
38034;SDS011;23841;48.524;1.342;2023-06-10T01:25:23;5.80;;;4.03;;
38034;SDS011;23841;48.524;1.342;2023-06-10T01:27:58;8.15;;;4.18;;
38034;SDS011;23841;48.524;1.342;2023-06-10T01:30:27;5.03;;;3.78;;
38034;SDS011;23841;48.524;1.342;2023-06-10T01:32:58;7.32;;;3.65;;
38034;SDS011;23841;48.524;1.342;2023-06-10T01:35:26;7.00;;;4.18;;
38034;SDS011;23841;48.524;1.342;2023-06-10T01:37:54;7.70;;;3.67;;
38034;SDS011;23841;48.524;1.342;2023-06-10T01:40:23;6.07;;;3.60;;
38034;SDS011;23841;48.524;1.342;2023-06-10T01:42:50;5.53;;;3.95;;
38034;SDS011;23841;48.524;1.342;2023-06-10T01:45:17;5.22;;;3.60;;
38034;SDS011;23841;48.524;1.342;2023-06-10T01:47:42;9.98;;;4.07;;
38034;SDS011;23841;48.524;1.342;2023-06-10T01:50:08;5.20;;;2.97;;
38034;SDS011;23841;48.524;1.342;2023-06-10T01:52:34;5.55;;;4.03;;
38034;SDS011;23841;48.524;1.342;2023-06-10T01:54:59;5.75;;;3.78;;
38034;SDS011;23841;48.524;1.342;2023-06-10T01:57:25;4.47;;;3.30;;
38034;SDS011;23841;48.524;1.342;2023-06-10T01:59:50;7.05;;;4.05;;
38034;SDS011;23841;48.524;1.342;2023-06-10T02:02:16;6.35;;;3.33;;
38034;SDS011;23841;48.524;1.342;2023-06-10T02:04:41;4.47;;;3.55;;
38034;SDS011;23841;48.524;1.342;2023-06-10T02:07:07;7.07;;;3.83;;
38034;SDS011;23841;48.524;1.342;2023-06-10T02:09:32;4.75;;;3.97;;
38034;SDS011;23841;48.524;1.342;2023-06-10T02:12:00;6.82;;;3.97;;
38034;SDS011;23841;48.524;1.342;2023-06-10T02:14:26;4.43;;;3.65;;
38034;SDS011;23841;48.524;1.342;2023-06-10T02:16:52;5.10;;;3.63;;
38034;SDS011;23841;48.524;1.342;2023-06-10T02:19:21;8.13;;;3.78;;
38034;SDS011;23841;48.524;1.342;2023-06-10T02:21:48;4.95;;;3.30;;
38034;SDS011;23841;48.524;1.342;2023-06-10T02:24:13;4.53;;;3.58;;
38034;SDS011;23841;48.524;1.342;2023-06-10T02:26:39;5.20;;;3.97;;
38034;SDS011;23841;48.524;1.342;2023-06-10T02:29:05;5.13;;;3.50;;
38034;SDS011;23841;48.524;1.342;2023-06-10T02:31:31;5.13;;;3.63;;
38034;SDS011;23841;48.524;1.342;2023-06-10T02:33:56;4.60;;;3.65;;
38034;SDS011;23841;48.524;1.342;2023-06-10T02:36:21;4.88;;;3.20;;
38034;SDS011;23841;48.524;1.342;2023-06-10T02:38:49;5.07;;;3.33;;
38034;SDS011;23841;48.524;1.342;2023-06-10T02:41:15;4.47;;;3.38;;
38034;SDS011;23841;48.524;1.342;2023-06-10T02:43:40;7.03;;;3.67;;
38034;SDS011;23841;48.524;1.342;2023-06-10T02:46:05;7.20;;;3.90;;
38034;SDS011;23841;48.524;1.342;2023-06-10T02:48:31;5.47;;;3.88;;
38034;SDS011;23841;48.524;1.342;2023-06-10T02:50:56;5.68;;;3.50;;
38034;SDS011;23841;48.524;1.342;2023-06-10T02:53:22;5.63;;;3.55;;
38034;SDS011;23841;48.524;1.342;2023-06-10T02:55:47;4.55;;;3.50;;
38034;SDS011;23841;48.524;1.342;2023-06-10T02:58:13;5.68;;;3.50;;
38034;SDS011;23841;48.524;1.342;2023-06-10T03:00:38;4.63;;;3.65;;
38034;SDS011;23841;48.524;1.342;2023-06-10T03:03:06;5.78;;;3.42;;
38034;SDS011;23841;48.524;1.342;2023-06-10T03:05:32;4.82;;;3.33;;
38034;SDS011;23841;48.524;1.342;2023-06-10T03:07:57;5.13;;;3.70;;
38034;SDS011;23841;48.524;1.342;2023-06-10T03:10:24;6.22;;;3.83;;
38034;SDS011;23841;48.524;1.342;2023-06-10T03:12:50;4.75;;;3.50;;
38034;SDS011;23841;48.524;1.342;2023-06-10T03:15:15;5.90;;;3.58;;
38034;SDS011;23841;48.524;1.342;2023-06-10T03:17:41;5.78;;;4.05;;
38034;SDS011;23841;48.524;1.342;2023-06-10T03:20:06;6.93;;;3.83;;
38034;SDS011;23841;48.524;1.342;2023-06-10T03:22:35;4.65;;;3.38;;
38034;SDS011;23841;48.524;1.342;2023-06-10T03:25:00;10.15;;;4.20;;
38034;SDS011;23841;48.524;1.342;2023-06-10T03:27:26;4.45;;;3.53;;
38034;SDS011;23841;48.524;1.342;2023-06-10T03:29:52;7.40;;;3.50;;
38034;SDS011;23841;48.524;1.342;2023-06-10T03:32:17;7.68;;;4.38;;
38034;SDS011;23841;48.524;1.342;2023-06-10T03:34:43;7.78;;;3.95;;
38034;SDS011;23841;48.524;1.342;2023-06-10T03:37:10;5.63;;;3.60;;
38034;SDS011;23841;48.524;1.342;2023-06-10T03:39:35;5.18;;;3.53;;
38034;SDS011;23841;48.524;1.342;2023-06-10T03:42:01;5.05;;;3.88;;
38034;SDS011;23841;48.524;1.342;2023-06-10T03:44:26;4.57;;;3.70;;
38034;SDS011;23841;48.524;1.342;2023-06-10T03:46:52;4.70;;;3.95;;
38034;SDS011;23841;48.524;1.342;2023-06-10T03:49:18;5.40;;;3.80;;
38034;SDS011;23841;48.524;1.342;2023-06-10T03:51:44;6.80;;;4.32;;
38034;SDS011;23841;48.524;1.342;2023-06-10T03:54:09;6.75;;;3.83;;
38034;SDS011;23841;48.524;1.342;2023-06-10T03:56:35;5.70;;;4.03;;
38034;SDS011;23841;48.524;1.342;2023-06-10T03:59:00;7.43;;;4.03;;
38034;SDS011;23841;48.524;1.342;2023-06-10T04:01:26;5.32;;;3.83;;
38034;SDS011;23841;48.524;1.342;2023-06-10T04:03:51;6.75;;;4.18;;
38034;SDS011;23841;48.524;1.342;2023-06-10T04:06:19;9.80;;;4.55;;
38034;SDS011;23841;48.524;1.342;2023-06-10T04:08:45;7.88;;;3.38;;
38034;SDS011;23841;48.524;1.342;2023-06-10T04:11:11;5.32;;;4.07;;
38034;SDS011;23841;48.524;1.342;2023-06-10T04:13:39;4.80;;;3.78;;
38034;SDS011;23841;48.524;1.342;2023-06-10T04:16:05;6.57;;;3.80;;
38034;SDS011;23841;48.524;1.342;2023-06-10T04:18:30;5.57;;;3.90;;
38034;SDS011;23841;48.524;1.342;2023-06-10T04:20:56;4.95;;;3.70;;
38034;SDS011;23841;48.524;1.342;2023-06-10T04:23:22;5.22;;;3.70;;
38034;SDS011;23841;48.524;1.342;2023-06-10T04:25:47;4.80;;;3.33;;
38034;SDS011;23841;48.524;1.342;2023-06-10T04:28:12;6.07;;;4.60;;
38034;SDS011;23841;48.524;1.342;2023-06-10T04:30:38;5.32;;;3.58;;
38034;SDS011;23841;48.524;1.342;2023-06-10T04:33:04;6.72;;;3.80;;
38034;SDS011;23841;48.524;1.342;2023-06-10T04:35:31;4.22;;;3.45;;
38034;SDS011;23841;48.524;1.342;2023-06-10T04:37:57;4.95;;;3.65;;
38034;SDS011;23841;48.524;1.342;2023-06-10T04:40:22;4.18;;;3.42;;
38034;SDS011;23841;48.524;1.342;2023-06-10T04:42:48;5.63;;;3.63;;
38034;SDS011;23841;48.524;1.342;2023-06-10T04:45:14;7.03;;;4.38;;
38034;SDS011;23841;48.524;1.342;2023-06-10T04:47:39;7.63;;;3.75;;
38034;SDS011;23841;48.524;1.342;2023-06-10T04:50:05;5.97;;;3.63;;
38034;SDS011;23841;48.524;1.342;2023-06-10T04:52:31;9.20;;;3.50;;
38034;SDS011;23841;48.524;1.342;2023-06-10T04:54:57;5.80;;;3.58;;
38034;SDS011;23841;48.524;1.342;2023-06-10T04:57:23;6.05;;;5.25;;
38034;SDS011;23841;48.524;1.342;2023-06-10T04:59:48;5.88;;;3.40;;
38034;SDS011;23841;48.524;1.342;2023-06-10T05:02:14;10.05;;;4.53;;
38034;SDS011;23841;48.524;1.342;2023-06-10T05:04:40;5.78;;;3.05;;
38034;SDS011;23841;48.524;1.342;2023-06-10T05:07:05;6.78;;;3.72;;
38034;SDS011;23841;48.524;1.342;2023-06-10T05:09:30;6.97;;;3.60;;
38034;SDS011;23841;48.524;1.342;2023-06-10T05:11:56;7.20;;;3.85;;
38034;SDS011;23841;48.524;1.342;2023-06-10T05:14:21;8.20;;;4.00;;
38034;SDS011;23841;48.524;1.342;2023-06-10T05:16:47;5.78;;;3.97;;
38034;SDS011;23841;48.524;1.342;2023-06-10T05:19:13;7.10;;;3.90;;
38034;SDS011;23841;48.524;1.342;2023-06-10T05:21:41;8.88;;;4.20;;
38034;SDS011;23841;48.524;1.342;2023-06-10T05:24:06;5.70;;;3.72;;
38034;SDS011;23841;48.524;1.342;2023-06-10T05:26:32;6.38;;;3.78;;
38034;SDS011;23841;48.524;1.342;2023-06-10T05:28:58;7.53;;;3.90;;
38034;SDS011;23841;48.524;1.342;2023-06-10T05:31:23;4.22;;;3.60;;
38034;SDS011;23841;48.524;1.342;2023-06-10T05:33:49;11.80;;;3.88;;
38034;SDS011;23841;48.524;1.342;2023-06-10T05:36:14;6.78;;;4.10;;
38034;SDS011;23841;48.524;1.342;2023-06-10T05:38:40;8.13;;;4.30;;
38034;SDS011;23841;48.524;1.342;2023-06-10T05:41:05;5.20;;;3.85;;
38034;SDS011;23841;48.524;1.342;2023-06-10T05:43:31;7.40;;;4.32;;
38034;SDS011;23841;48.524;1.342;2023-06-10T05:45:56;6.30;;;4.13;;
38034;SDS011;23841;48.524;1.342;2023-06-10T05:48:22;6.13;;;3.97;;
38034;SDS011;23841;48.524;1.342;2023-06-10T05:50:47;8.50;;;4.85;;
38034;SDS011;23841;48.524;1.342;2023-06-10T05:53:16;6.50;;;4.43;;
38034;SDS011;23841;48.524;1.342;2023-06-10T05:55:42;6.88;;;4.50;;
38034;SDS011;23841;48.524;1.342;2023-06-10T05:58:09;7.38;;;4.85;;
38034;SDS011;23841;48.524;1.342;2023-06-10T06:00:35;8.10;;;4.90;;
38034;SDS011;23841;48.524;1.342;2023-06-10T06:03:00;8.38;;;4.97;;
38034;SDS011;23841;48.524;1.342;2023-06-10T06:05:26;14.32;;;4.85;;
38034;SDS011;23841;48.524;1.342;2023-06-10T06:07:51;6.85;;;5.43;;
38034;SDS011;23841;48.524;1.342;2023-06-10T06:10:17;11.13;;;6.05;;
38034;SDS011;23841;48.524;1.342;2023-06-10T06:12:43;7.07;;;5.38;;
38034;SDS011;23841;48.524;1.342;2023-06-10T06:15:09;8.40;;;5.20;;
38034;SDS011;23841;48.524;1.342;2023-06-10T06:17:35;8.23;;;5.53;;
38034;SDS011;23841;48.524;1.342;2023-06-10T06:20:01;6.82;;;5.07;;
38034;SDS011;23841;48.524;1.342;2023-06-10T06:22:27;7.95;;;4.90;;
38034;SDS011;23841;48.524;1.342;2023-06-10T06:24:52;10.63;;;5.63;;
38034;SDS011;23841;48.524;1.342;2023-06-10T06:27:18;7.35;;;5.43;;
38034;SDS011;23841;48.524;1.342;2023-06-10T06:29:43;10.30;;;5.72;;
38034;SDS011;23841;48.524;1.342;2023-06-10T06:32:08;9.07;;;5.38;;
38034;SDS011;23841;48.524;1.342;2023-06-10T06:34:34;7.43;;;5.45;;
38034;SDS011;23841;48.524;1.342;2023-06-10T06:36:59;10.85;;;5.95;;
38034;SDS011;23841;48.524;1.342;2023-06-10T06:39:25;9.65;;;5.90;;
38034;SDS011;23841;48.524;1.342;2023-06-10T06:41:50;10.02;;;6.07;;
38034;SDS011;23841;48.524;1.342;2023-06-10T06:44:16;8.25;;;6.05;;
38034;SDS011;23841;48.524;1.342;2023-06-10T06:46:41;9.65;;;5.75;;
38034;SDS011;23841;48.524;1.342;2023-06-10T06:49:06;9.73;;;6.60;;
38034;SDS011;23841;48.524;1.342;2023-06-10T06:51:32;9.18;;;5.88;;
38034;SDS011;23841;48.524;1.342;2023-06-10T06:53:57;7.63;;;5.93;;
38034;SDS011;23841;48.524;1.342;2023-06-10T06:56:24;8.75;;;5.75;;
38034;SDS011;23841;48.524;1.342;2023-06-10T06:58:51;9.77;;;6.07;;
38034;SDS011;23841;48.524;1.342;2023-06-10T07:01:16;8.60;;;5.90;;
38034;SDS011;23841;48.524;1.342;2023-06-10T07:03:42;12.13;;;6.57;;
38034;SDS011;23841;48.524;1.342;2023-06-10T07:06:07;8.52;;;6.28;;
38034;SDS011;23841;48.524;1.342;2023-06-10T07:08:33;9.43;;;6.20;;
38034;SDS011;23841;48.524;1.342;2023-06-10T07:10:58;7.53;;;6.20;;
38034;SDS011;23841;48.524;1.342;2023-06-10T07:13:23;8.85;;;5.97;;
38034;SDS011;23841;48.524;1.342;2023-06-10T07:15:49;9.02;;;6.18;;
38034;SDS011;23841;48.524;1.342;2023-06-10T07:18:15;7.40;;;6.07;;
38034;SDS011;23841;48.524;1.342;2023-06-10T07:20:41;8.27;;;5.80;;
38034;SDS011;23841;48.524;1.342;2023-06-10T07:23:06;8.80;;;6.65;;
38034;SDS011;23841;48.524;1.342;2023-06-10T07:25:32;9.63;;;7.15;;
38034;SDS011;23841;48.524;1.342;2023-06-10T07:27:57;9.52;;;6.60;;
38034;SDS011;23841;48.524;1.342;2023-06-10T07:30:22;9.32;;;6.60;;
38034;SDS011;23841;48.524;1.342;2023-06-10T07:32:48;10.18;;;6.60;;
38034;SDS011;23841;48.524;1.342;2023-06-10T07:35:13;11.15;;;7.07;;
38034;SDS011;23841;48.524;1.342;2023-06-10T07:37:39;10.43;;;6.65;;
38034;SDS011;23841;48.524;1.342;2023-06-10T07:40:04;9.98;;;6.53;;
38034;SDS011;23841;48.524;1.342;2023-06-10T07:42:31;8.95;;;6.78;;
38034;SDS011;23841;48.524;1.342;2023-06-10T07:44:59;8.23;;;7.22;;
38034;SDS011;23841;48.524;1.342;2023-06-10T07:47:24;11.57;;;7.65;;
38034;SDS011;23841;48.524;1.342;2023-06-10T07:49:50;11.35;;;7.07;;
38034;SDS011;23841;48.524;1.342;2023-06-10T07:52:15;11.18;;;7.15;;
38034;SDS011;23841;48.524;1.342;2023-06-10T07:54:41;10.20;;;6.65;;
38034;SDS011;23841;48.524;1.342;2023-06-10T07:57:06;10.70;;;8.35;;
38034;SDS011;23841;48.524;1.342;2023-06-10T07:59:32;9.93;;;8.07;;
38034;SDS011;23841;48.524;1.342;2023-06-10T08:01:57;12.85;;;8.00;;
38034;SDS011;23841;48.524;1.342;2023-06-10T08:04:23;12.52;;;7.60;;
38034;SDS011;23841;48.524;1.342;2023-06-10T08:06:48;14.18;;;8.15;;
38034;SDS011;23841;48.524;1.342;2023-06-10T08:09:14;11.55;;;7.65;;
38034;SDS011;23841;48.524;1.342;2023-06-10T08:11:40;9.68;;;8.43;;
38034;SDS011;23841;48.524;1.342;2023-06-10T08:14:05;12.15;;;7.97;;
38034;SDS011;23841;48.524;1.342;2023-06-10T08:16:31;14.73;;;8.77;;
38034;SDS011;23841;48.524;1.342;2023-06-10T08:19:00;9.65;;;8.05;;
38034;SDS011;23841;48.524;1.342;2023-06-10T08:21:26;11.23;;;9.10;;
38034;SDS011;23841;48.524;1.342;2023-06-10T08:23:53;10.32;;;8.90;;
38034;SDS011;23841;48.524;1.342;2023-06-10T08:26:20;10.10;;;9.00;;
38034;SDS011;23841;48.524;1.342;2023-06-10T08:28:46;14.27;;;9.57;;
38034;SDS011;23841;48.524;1.342;2023-06-10T08:31:11;10.60;;;8.73;;
38034;SDS011;23841;48.524;1.342;2023-06-10T08:33:37;11.95;;;9.05;;
38034;SDS011;23841;48.524;1.342;2023-06-10T08:36:02;12.32;;;10.00;;
38034;SDS011;23841;48.524;1.342;2023-06-10T08:38:28;11.25;;;9.25;;
38034;SDS011;23841;48.524;1.342;2023-06-10T08:40:56;16.02;;;9.65;;
38034;SDS011;23841;48.524;1.342;2023-06-10T08:45:57;11.90;;;8.88;;
38034;SDS011;23841;48.524;1.342;2023-06-10T08:48:26;11.80;;;8.98;;
38034;SDS011;23841;48.524;1.342;2023-06-10T08:50:55;13.13;;;9.38;;
38034;SDS011;23841;48.524;1.342;2023-06-10T08:53:22;11.10;;;9.00;;
38034;SDS011;23841;48.524;1.342;2023-06-10T08:55:51;13.50;;;9.50;;
38034;SDS011;23841;48.524;1.342;2023-06-10T08:58:17;12.10;;;9.80;;
38034;SDS011;23841;48.524;1.342;2023-06-10T09:00:44;11.93;;;9.57;;
38034;SDS011;23841;48.524;1.342;2023-06-10T09:03:10;11.90;;;8.68;;
38034;SDS011;23841;48.524;1.342;2023-06-10T09:05:36;14.50;;;10.20;;
38034;SDS011;23841;48.524;1.342;2023-06-10T09:08:03;13.15;;;9.63;;
38034;SDS011;23841;48.524;1.342;2023-06-10T09:10:30;12.85;;;10.27;;
38034;SDS011;23841;48.524;1.342;2023-06-10T09:12:57;12.93;;;9.60;;
38034;SDS011;23841;48.524;1.342;2023-06-10T09:15:22;13.00;;;10.23;;
38034;SDS011;23841;48.524;1.342;2023-06-10T09:17:48;13.02;;;9.05;;
38034;SDS011;23841;48.524;1.342;2023-06-10T09:20:13;11.45;;;10.15;;
38034;SDS011;23841;48.524;1.342;2023-06-10T09:22:40;10.52;;;8.90;;
38034;SDS011;23841;48.524;1.342;2023-06-10T09:25:11;10.95;;;8.85;;
38034;SDS011;23841;48.524;1.342;2023-06-10T09:27:47;11.50;;;8.63;;
38034;SDS011;23841;48.524;1.342;2023-06-10T09:30:28;11.15;;;9.05;;
38034;SDS011;23841;48.524;1.342;2023-06-10T09:32:55;11.52;;;9.20;;
38034;SDS011;23841;48.524;1.342;2023-06-10T09:35:23;10.27;;;8.60;;
38034;SDS011;23841;48.524;1.342;2023-06-10T09:37:53;10.43;;;8.45;;
38034;SDS011;23841;48.524;1.342;2023-06-10T09:40:20;11.27;;;8.18;;
38034;SDS011;23841;48.524;1.342;2023-06-10T09:42:45;17.17;;;8.57;;
38034;SDS011;23841;48.524;1.342;2023-06-10T09:45:14;10.25;;;7.80;;
38034;SDS011;23841;48.524;1.342;2023-06-10T09:47:39;9.70;;;7.55;;
38034;SDS011;23841;48.524;1.342;2023-06-10T09:50:05;10.90;;;7.72;;
38034;SDS011;23841;48.524;1.342;2023-06-10T09:52:31;10.75;;;7.95;;
38034;SDS011;23841;48.524;1.342;2023-06-10T09:55:00;10.98;;;7.90;;
38034;SDS011;23841;48.524;1.342;2023-06-10T09:57:30;8.85;;;6.88;;
38034;SDS011;23841;48.524;1.342;2023-06-10T10:00:04;11.13;;;7.10;;
38034;SDS011;23841;48.524;1.342;2023-06-10T10:02:31;10.73;;;6.80;;
38034;SDS011;23841;48.524;1.342;2023-06-10T10:05:01;8.52;;;7.28;;
38034;SDS011;23841;48.524;1.342;2023-06-10T10:07:29;8.13;;;6.55;;
38034;SDS011;23841;48.524;1.342;2023-06-10T10:09:56;12.50;;;7.10;;
38034;SDS011;23841;48.524;1.342;2023-06-10T10:12:21;9.18;;;6.35;;
38034;SDS011;23841;48.524;1.342;2023-06-10T10:14:50;8.32;;;6.80;;
38034;SDS011;23841;48.524;1.342;2023-06-10T10:17:17;8.77;;;6.80;;
38034;SDS011;23841;48.524;1.342;2023-06-10T10:19:46;7.57;;;5.78;;
38034;SDS011;23841;48.524;1.342;2023-06-10T10:22:19;6.72;;;5.75;;
38034;SDS011;23841;48.524;1.342;2023-06-10T10:24:51;8.23;;;6.28;;
38034;SDS011;23841;48.524;1.342;2023-06-10T10:27:21;7.47;;;5.70;;
38034;SDS011;23841;48.524;1.342;2023-06-10T10:30:02;6.82;;;5.47;;
38034;SDS011;23841;48.524;1.342;2023-06-10T10:33:08;8.52;;;5.57;;
38034;SDS011;23841;48.524;1.342;2023-06-10T10:35:30;7.25;;;5.45;;
38034;SDS011;23841;48.524;1.342;2023-06-10T10:37:57;6.85;;;4.95;;
38034;SDS011;23841;48.524;1.342;2023-06-10T10:40:22;5.68;;;4.93;;
38034;SDS011;23841;48.524;1.342;2023-06-10T10:42:49;7.20;;;5.25;;
38034;SDS011;23841;48.524;1.342;2023-06-10T10:45:16;5.88;;;4.78;;
38034;SDS011;23841;48.524;1.342;2023-06-10T10:47:42;6.30;;;4.32;;
38034;SDS011;23841;48.524;1.342;2023-06-10T10:50:16;7.63;;;5.03;;
38034;SDS011;23841;48.524;1.342;2023-06-10T10:52:53;8.20;;;5.20;;
38034;SDS011;23841;48.524;1.342;2023-06-10T10:55:26;6.15;;;4.63;;
38034;SDS011;23841;48.524;1.342;2023-06-10T10:57:55;7.35;;;4.78;;
38034;SDS011;23841;48.524;1.342;2023-06-10T11:00:29;7.40;;;4.57;;
38034;SDS011;23841;48.524;1.342;2023-06-10T11:03:07;5.55;;;4.53;;
38034;SDS011;23841;48.524;1.342;2023-06-10T11:05:40;5.90;;;4.18;;
38034;SDS011;23841;48.524;1.342;2023-06-10T11:08:13;5.80;;;4.15;;
38034;SDS011;23841;48.524;1.342;2023-06-10T11:10:41;4.90;;;3.70;;
38034;SDS011;23841;48.524;1.342;2023-06-10T11:15:44;5.15;;;3.47;;
38034;SDS011;23841;48.524;1.342;2023-06-10T11:18:15;5.03;;;4.10;;
38034;SDS011;23841;48.524;1.342;2023-06-10T11:31:21;4.95;;;3.42;;
38034;SDS011;23841;48.524;1.342;2023-06-10T11:33:55;5.10;;;3.92;;
38034;SDS011;23841;48.524;1.342;2023-06-10T11:36:28;4.07;;;3.38;;
38034;SDS011;23841;48.524;1.342;2023-06-10T11:38:58;6.45;;;4.05;;
38034;SDS011;23841;48.524;1.342;2023-06-10T11:41:25;5.32;;;3.58;;
38034;SDS011;23841;48.524;1.342;2023-06-10T11:43:54;4.90;;;3.53;;
38034;SDS011;23841;48.524;1.342;2023-06-10T11:46:23;4.63;;;3.38;;
38034;SDS011;23841;48.524;1.342;2023-06-10T11:48:52;4.45;;;3.58;;
38034;SDS011;23841;48.524;1.342;2023-06-10T11:51:19;4.70;;;3.63;;
38034;SDS011;23841;48.524;1.342;2023-06-10T11:53:46;4.25;;;2.70;;
38034;SDS011;23841;48.524;1.342;2023-06-10T11:56:13;4.07;;;3.13;;
38034;SDS011;23841;48.524;1.342;2023-06-10T11:58:40;3.70;;;2.70;;
38034;SDS011;23841;48.524;1.342;2023-06-10T12:01:10;4.13;;;3.05;;
38034;SDS011;23841;48.524;1.342;2023-06-10T12:03:36;4.07;;;3.15;;
38034;SDS011;23841;48.524;1.342;2023-06-10T12:06:05;3.38;;;2.70;;
38034;SDS011;23841;48.524;1.342;2023-06-10T12:08:32;4.00;;;2.90;;
38034;SDS011;23841;48.524;1.342;2023-06-10T12:11:06;4.90;;;3.20;;
38034;SDS011;23841;48.524;1.342;2023-06-10T12:13:31;3.83;;;3.00;;
38034;SDS011;23841;48.524;1.342;2023-06-10T12:16:06;4.82;;;3.17;;
38034;SDS011;23841;48.524;1.342;2023-06-10T12:18:32;4.28;;;3.20;;
38034;SDS011;23841;48.524;1.342;2023-06-10T12:20:58;4.43;;;2.97;;
38034;SDS011;23841;48.524;1.342;2023-06-10T12:23:24;5.50;;;3.45;;
38034;SDS011;23841;48.524;1.342;2023-06-10T12:25:50;4.18;;;2.85;;
38034;SDS011;23841;48.524;1.342;2023-06-10T12:28:17;4.97;;;3.10;;
38034;SDS011;23841;48.524;1.342;2023-06-10T12:30:45;3.72;;;2.95;;
38034;SDS011;23841;48.524;1.342;2023-06-10T12:33:20;4.20;;;3.22;;
38034;SDS011;23841;48.524;1.342;2023-06-10T12:35:47;4.30;;;3.20;;
38034;SDS011;23841;48.524;1.342;2023-06-10T12:38:14;3.78;;;3.00;;
38034;SDS011;23841;48.524;1.342;2023-06-10T12:40:46;4.32;;;3.28;;
38034;SDS011;23841;48.524;1.342;2023-06-10T12:43:12;6.25;;;3.10;;
38034;SDS011;23841;48.524;1.342;2023-06-10T12:45:39;4.40;;;3.10;;
38034;SDS011;23841;48.524;1.342;2023-06-10T12:50:37;3.53;;;2.90;;
38034;SDS011;23841;48.524;1.342;2023-06-10T12:53:04;4.90;;;3.45;;
38034;SDS011;23841;48.524;1.342;2023-06-10T12:55:30;4.07;;;3.35;;
38034;SDS011;23841;48.524;1.342;2023-06-10T12:57:56;6.18;;;3.60;;
38034;SDS011;23841;48.524;1.342;2023-06-10T13:00:22;4.95;;;3.35;;
38034;SDS011;23841;48.524;1.342;2023-06-10T13:02:50;5.47;;;3.20;;
38034;SDS011;23841;48.524;1.342;2023-06-10T13:05:19;6.07;;;3.78;;
38034;SDS011;23841;48.524;1.342;2023-06-10T13:07:45;3.97;;;2.92;;
38034;SDS011;23841;48.524;1.342;2023-06-10T13:10:12;4.97;;;4.20;;
38034;SDS011;23841;48.524;1.342;2023-06-10T13:12:39;4.47;;;3.33;;
38034;SDS011;23841;48.524;1.342;2023-06-10T13:15:04;4.03;;;3.42;;
38034;SDS011;23841;48.524;1.342;2023-06-10T13:17:30;5.18;;;3.35;;
38034;SDS011;23841;48.524;1.342;2023-06-10T13:19:56;4.50;;;2.80;;
38034;SDS011;23841;48.524;1.342;2023-06-10T13:22:21;4.00;;;3.30;;
38034;SDS011;23841;48.524;1.342;2023-06-10T13:24:49;3.90;;;3.15;;
38034;SDS011;23841;48.524;1.342;2023-06-10T13:27:14;4.18;;;3.28;;
38034;SDS011;23841;48.524;1.342;2023-06-10T13:29:39;5.20;;;3.25;;
38034;SDS011;23841;48.524;1.342;2023-06-10T13:32:05;4.68;;;2.90;;
38034;SDS011;23841;48.524;1.342;2023-06-10T13:34:31;5.28;;;3.35;;
38034;SDS011;23841;48.524;1.342;2023-06-10T13:36:57;4.20;;;3.08;;
38034;SDS011;23841;48.524;1.342;2023-06-10T13:39:22;6.63;;;3.40;;
38034;SDS011;23841;48.524;1.342;2023-06-10T13:41:48;5.13;;;3.55;;
38034;SDS011;23841;48.524;1.342;2023-06-10T13:44:13;6.00;;;3.88;;
38034;SDS011;23841;48.524;1.342;2023-06-10T13:46:39;4.95;;;3.30;;
38034;SDS011;23841;48.524;1.342;2023-06-10T13:49:05;4.50;;;3.42;;
38034;SDS011;23841;48.524;1.342;2023-06-10T13:51:30;4.50;;;3.10;;
38034;SDS011;23841;48.524;1.342;2023-06-10T13:53:55;5.35;;;3.45;;
38034;SDS011;23841;48.524;1.342;2023-06-10T13:56:21;5.30;;;3.30;;
38034;SDS011;23841;48.524;1.342;2023-06-10T13:58:48;7.32;;;3.65;;
38034;SDS011;23841;48.524;1.342;2023-06-10T14:01:13;6.32;;;3.30;;
38034;SDS011;23841;48.524;1.342;2023-06-10T14:03:39;4.40;;;3.00;;
38034;SDS011;23841;48.524;1.342;2023-06-10T14:06:05;4.53;;;3.05;;
38034;SDS011;23841;48.524;1.342;2023-06-10T14:08:30;5.43;;;3.47;;
38034;SDS011;23841;48.524;1.342;2023-06-10T14:10:56;6.50;;;3.20;;
38034;SDS011;23841;48.524;1.342;2023-06-10T14:13:21;5.28;;;3.40;;
38034;SDS011;23841;48.524;1.342;2023-06-10T14:15:47;4.82;;;3.28;;
38034;SDS011;23841;48.524;1.342;2023-06-10T14:18:13;4.25;;;3.10;;
38034;SDS011;23841;48.524;1.342;2023-06-10T14:20:38;6.57;;;3.47;;
38034;SDS011;23841;48.524;1.342;2023-06-10T14:23:03;4.38;;;3.45;;
38034;SDS011;23841;48.524;1.342;2023-06-10T14:25:29;6.45;;;3.22;;
38034;SDS011;23841;48.524;1.342;2023-06-10T14:27:54;4.47;;;3.22;;
38034;SDS011;23841;48.524;1.342;2023-06-10T14:30:20;4.13;;;3.22;;
38034;SDS011;23841;48.524;1.342;2023-06-10T14:32:45;4.20;;;3.20;;
38034;SDS011;23841;48.524;1.342;2023-06-10T14:35:11;4.50;;;3.03;;
38034;SDS011;23841;48.524;1.342;2023-06-10T14:37:37;4.47;;;3.13;;
38034;SDS011;23841;48.524;1.342;2023-06-10T14:40:03;5.63;;;3.13;;
38034;SDS011;23841;48.524;1.342;2023-06-10T14:42:30;4.13;;;2.85;;
38034;SDS011;23841;48.524;1.342;2023-06-10T14:44:57;3.65;;;2.53;;
38034;SDS011;23841;48.524;1.342;2023-06-10T14:47:22;3.58;;;2.75;;
38034;SDS011;23841;48.524;1.342;2023-06-10T14:49:48;3.83;;;2.83;;
38034;SDS011;23841;48.524;1.342;2023-06-10T14:52:13;3.25;;;2.55;;
38034;SDS011;23841;48.524;1.342;2023-06-10T14:54:38;4.53;;;2.90;;
38034;SDS011;23841;48.524;1.342;2023-06-10T14:57:04;5.05;;;2.95;;
38034;SDS011;23841;48.524;1.342;2023-06-10T14:59:30;3.80;;;2.97;;
38034;SDS011;23841;48.524;1.342;2023-06-10T15:01:56;3.05;;;2.30;;
38034;SDS011;23841;48.524;1.342;2023-06-10T15:04:22;3.45;;;2.60;;
38034;SDS011;23841;48.524;1.342;2023-06-10T15:06:47;4.30;;;2.95;;